Thursday, January 17, 2019, 7:00 AM EST
Back to Local

KSFM, Sanford, Sanford Regional Airport

Location: Sanford, ME, United States Lat: 43.4
Local Time: 7:00 AM EST (12:00 GMT) Lon: -70.717
Time Zone: US/Eastern Elev: 242 ft

Show me the last for .
Show Decoded

2019-01-17 05:56 METAR KSFM 171056Z AUTO 28011KT 10SM CLR M13/M19 A3030 RMK AO2 SLP269 T11281194
                 FZRANO PNO $ =
2019-01-17 04:56 METAR KSFM 170956Z AUTO 29008G15KT 10SM CLR M12/M19 A3029 RMK AO2 SLP264
                 T11221194 FZRANO PNO $ =
2019-01-17 03:56 METAR KSFM 170856Z AUTO 30006KT 10SM CLR M12/M18 A3028 RMK AO2 SLP260 6////
                 T11171183 51037 FZRANO PNO $ =
2019-01-17 02:56 METAR KSFM 170756Z AUTO 28008KT 10SM CLR M11/M17 A3025 RMK AO2 SLP251 T11061172
                 FZRANO PNO $ =
2019-01-17 01:56 METAR KSFM 170656Z AUTO 31009G15KT 10SM CLR M09/M18 A3022 RMK AO2 SLP239
                 T10941178 FZRANO PNO $ =
2019-01-17 00:56 METAR KSFM 170556Z AUTO 29012G19KT 10SM CLR M08/M17 A3017 RMK AO2 SLP222 6////
                 T10781172 10011 21078 51039 FZRANO PNO $ =
2019-01-16 23:56 METAR KSFM 170456Z AUTO 31009KT 290V350 10SM CLR M06/M16 A3014 RMK AO2 SLP212
                 T10611156 FZRANO PNO $ =
2019-01-16 21:56 METAR KSFM 170256Z AUTO 30013G19KT 10SM CLR M02/M11 A3005 RMK AO2 SLP182 6////
                 T10221111 53043 FZRANO PNO $ =
2019-01-16 20:56 METAR KSFM 170156Z AUTO 29009KT 10SM SCT041 OVC055 00/M05 A2999 RMK AO2
                 RAB00E02UPB25E37SNB02E25 SLP163 T00001050 FZRANO PNO $ =
2019-01-16 19:56 METAR KSFM 170056Z AUTO 28010KT 10SM FEW039 SCT060 01/M06 A2995 RMK AO2 SLP148
                 T00061056 FZRANO PNO $ =
2019-01-16 18:56 METAR KSFM 162356Z AUTO 24007KT 10SM FEW046 SCT070 00/M06 A2993 RMK AO2 SLP140
                 6//// T00001056 10028 21017 53022 FZRANO PNO $ =
2019-01-16 17:56 METAR KSFM 162256Z AUTO 00000KT 10SM FEW046 BKN070 00/M06 A2990 RMK AO2 SLP131
                 T00001056 FZRANO PNO $ =
2019-01-16 16:56 METAR KSFM 162156Z AUTO 22004KT 10SM BKN050 OVC065 01/M06 A2987 RMK AO2 SLP123
                 T00061061 FZRANO PNO $ =
2019-01-16 15:56 METAR KSFM 162056Z AUTO 24008KT 10SM FEW050 SCT070 02/M06 A2986 RMK AO2 SLP118
                 6//// T00171061 53005 FZRANO PNO $ =
2019-01-16 14:56 METAR KSFM 161956Z AUTO 27014G19KT 10SM CLR 03/M06 A2985 RMK AO2 SLP113
                 T00281061 PNO $ =
2019-01-16 13:56 METAR KSFM 161856Z AUTO 25007G16KT 10SM OVC037 02/M06 A2986 RMK AO2 SLP116
                 T00171056 FZRANO PNO $ =
2019-01-16 12:56 METAR KSFM 161756Z AUTO 24015G19KT 10SM OVC035 01/M06 A2985 RMK AO2 SLP112 6////
                 T00111061 10017 21067 56023 FZRANO PNO $ =
2019-01-16 11:56 METAR KSFM 161656Z AUTO 22008KT 10SM FEW030 SCT038 01/M06 A2985 RMK AO2 SLP115
                 T00111061 FZRANO PNO $ =
2019-01-16 10:56 METAR KSFM 161556Z AUTO 23010G14KT 10SM OVC032 M01/M06 A2989 RMK AO2 SLP129
                 T10061061 FZRANO PNO $ =
2019-01-16 09:56 METAR KSFM 161456Z AUTO 20006KT 10SM CLR M01/M06 A2991 RMK AO2 SLP136 6////
                 T10111056 56011 FZRANO PNO $ =
2019-01-16 08:56 METAR KSFM 161356Z AUTO 22006KT 10SM OVC042 M05/M07 A2993 RMK AO2 SLP142
                 T10501067 FZRANO PNO $ =
2019-01-16 07:56 METAR KSFM 161256Z AUTO 20005KT 10SM OVC033 M06/M08 A2993 RMK AO2 SLP144
                 T10611078 FZRANO PNO $ =

Support USWX by starting your Amazon purchase here.